Time;durP1;ratioP1;P1;durP2;ratioP2;P2;SDS_P1;SDS_P2;PMS_P1;PMS_P2;Temp;Humidity;BMP_temperature;BMP_pressure;BME280_temperature;BME280_humidity;BME280_pressure;Samples;Min_cycle;Max_cycle;Signal;HPM_P1;HPM_P2
2022/08/30 00:02:04;;;;;;;3.97;1.88;;;20.90;50.50;;;;;;4934976;29;20056;-54
2022/08/30 00:04:31;;;;;;;2.45;2.00;;;21.00;51.10;;;;;;4930557;29;20079;-53
2022/08/30 00:07:02;;;;;;;3.67;2.35;;;21.00;50.90;;;;;;4934858;29;20381;-54
2022/08/30 00:09:31;;;;;;;3.80;2.47;;;21.00;51.30;;;;;;4935037;29;20042;-55
2022/08/30 00:11:58;;;;;;;3.15;1.98;;;21.00;51.20;;;;;;4932883;29;20445;-52
2022/08/30 00:14:26;;;;;;;4.68;2.50;;;21.00;50.90;;;;;;4932086;29;20497;-53
2022/08/30 00:17:03;;;;;;;3.38;1.85;;;21.10;51.20;;;;;;4934818;29;20059;-54
2022/08/30 00:19:30;;;;;;;2.88;1.83;;;21.30;51.50;;;;;;4915150;29;20099;-53
2022/08/30 00:21:57;;;;;;;4.60;2.33;;;21.20;51.30;;;;;;4927170;29;20040;-53
2022/08/30 00:24:24;;;;;;;3.40;2.50;;;21.30;51.30;;;;;;4935621;29;20047;-54
2022/08/30 00:26:51;;;;;;;3.15;2.25;;;21.40;51.30;;;;;;4934677;29;20047;-55
2022/08/30 00:29:20;;;;;;;4.35;2.67;;;21.40;51.20;;;;;;4927963;29;20036;-53
2022/08/30 00:31:53;;;;;;;6.57;2.58;;;21.50;51.10;;;;;;4928527;29;20542;-54
2022/08/30 00:34:20;;;;;;;4.55;2.45;;;21.60;51.10;;;;;;4926994;29;20039;-53
2022/08/30 00:36:47;;;;;;;4.50;2.47;;;21.70;51.20;;;;;;4932867;29;20468;-54
2022/08/30 00:39:13;;;;;;;4.57;2.20;;;21.70;51.30;;;;;;4935469;29;20047;-51
2022/08/30 00:41:40;;;;;;;5.43;2.65;;;21.70;51.10;;;;;;4931596;29;20095;-54
2022/08/30 00:44:07;;;;;;;5.07;2.38;;;21.80;51.30;;;;;;4934410;29;20072;-55
2022/08/30 00:46:35;;;;;;;3.78;2.38;;;21.80;51.10;;;;;;4933680;29;20046;-53
2022/08/30 00:49:08;;;;;;;5.60;2.78;;;21.90;51.30;;;;;;4935450;29;20048;-54
2022/08/30 00:51:34;;;;;;;7.10;2.40;;;21.80;51.20;;;;;;4930430;29;20048;-53
2022/08/30 00:54:02;;;;;;;5.55;2.80;;;21.90;50.90;;;;;;4934117;29;20047;-54
2022/08/30 00:56:31;;;;;;;3.28;1.98;;;22.00;51.00;;;;;;4934036;29;20040;-55
2022/08/30 00:59:00;;;;;;;3.78;2.40;;;22.00;50.90;;;;;;4930324;29;20044;-52
2022/08/30 01:01:31;;;;;;;3.28;2.88;;;22.00;51.20;;;;;;4933413;29;20051;-55
2022/08/30 01:04:04;;;;;;;3.30;2.50;;;22.00;51.20;;;;;;4934516;29;20719;-55
2022/08/30 01:06:33;;;;;;;3.47;2.42;;;22.00;51.50;;;;;;4931024;29;20040;-54
2022/08/30 01:09:06;;;;;;;5.18;3.38;;;22.00;51.40;;;;;;4929672;29;20071;-55
2022/08/30 01:11:37;;;;;;;5.25;3.05;;;22.00;51.40;;;;;;4933630;29;20044;-53
2022/08/30 01:14:07;;;;;;;5.88;2.72;;;22.00;51.50;;;;;;4933667;29;20044;-55
2022/08/30 01:16:37;;;;;;;;;;;22.00;51.80;;;;;;4928166;29;20836;-54
2022/08/30 01:19:20;;;;;;;5.95;2.60;;;22.10;50.80;;;;;;4918277;29;19973;-54
2022/08/30 01:21:53;;;;;;;5.35;2.50;;;22.00;51.50;;;;;;4928995;29;20389;-54
2022/08/30 01:24:21;;;;;;;5.75;3.42;;;22.00;51.30;;;;;;4933460;29;20040;-52
2022/08/30 01:26:54;;;;;;;5.78;2.38;;;22.00;51.50;;;;;;4927014;29;20569;-55
2022/08/30 01:29:25;;;;;;;4.60;2.88;;;21.90;51.70;;;;;;4929227;29;20092;-54
2022/08/30 01:31:55;;;;;;;4.93;2.83;;;22.00;51.90;;;;;;4933164;29;20051;-52
2022/08/30 01:34:21;;;;;;;5.57;3.72;;;21.90;51.90;;;;;;4933965;29;20114;-55
2022/08/30 01:36:49;;;;;;;5.07;2.88;;;22.00;52.20;;;;;;4929515;29;20044;-53
2022/08/30 01:39:19;;;;;;;3.45;2.47;;;21.90;52.20;;;;;;4933200;29;20063;-55
2022/08/30 01:41:46;;;;;;;4.65;2.83;;;22.00;52.50;;;;;;4933378;29;20400;-53
2022/08/30 01:44:13;;;;;;;3.72;2.97;;;21.80;52.10;;;;;;4933531;29;20110;-54
2022/08/30 01:46:44;;;;;;;4.55;3.08;;;21.90;52.50;;;;;;4924881;29;20047;-55
2022/08/30 01:49:17;;;;;;;3.50;3.05;;;21.80;52.70;;;;;;4927600;29;20047;-55
2022/08/30 01:51:54;;;;;;;5.97;3.08;;;21.90;52.90;;;;;;4932909;29;20664;-50
2022/08/30 01:54:28;;;;;;;4.15;3.10;;;21.80;52.60;;;;;;4926054;29;20046;-51
2022/08/30 01:57:08;;;;;;;4.78;2.95;;;21.70;52.70;;;;;;4932870;29;20048;-54
2022/08/30 01:59:36;;;;;;;4.38;3.15;;;21.70;53.40;;;;;;4917243;29;20052;-54
2022/08/30 02:02:06;;;;;;;5.13;3.65;;;21.70;52.60;;;;;;4931029;29;20404;-53
2022/08/30 02:04:35;;;;;;;6.03;3.50;;;21.70;52.70;;;;;;4932474;29;20636;-52
2022/08/30 02:07:03;;;;;;;5.40;2.70;;;21.60;53.10;;;;;;4928271;29;20139;-54
2022/08/30 02:09:30;;;;;;;3.15;2.85;;;21.50;53.00;;;;;;4933642;29;20047;-55
2022/08/30 02:11:56;;;;;;;5.30;3.08;;;21.50;53.00;;;;;;4931613;29;20056;-51
2022/08/30 02:14:26;;;;;;;5.53;3.15;;;21.50;53.10;;;;;;4929349;29;20740;-55
2022/08/30 02:16:53;;;;;;;8.18;3.47;;;21.40;53.10;;;;;;4929453;29;20579;-53
2022/08/30 02:19:22;;;;;;;4.32;3.20;;;21.30;53.20;;;;;;4924574;29;20106;-54
2022/08/30 02:21:49;;;;;;;4.00;2.95;;;21.30;53.40;;;;;;4932162;29;20107;-51
2022/08/30 02:24:18;;;;;;;8.10;4.10;;;21.20;53.50;;;;;;4927659;29;20047;-52
2022/08/30 02:26:44;;;;;;;4.60;3.20;;;21.10;53.30;;;;;;4932070;29;20497;-56
2022/08/30 02:29:14;;;;;;;5.32;3.75;;;21.10;53.50;;;;;;4931998;29;20036;-55
2022/08/30 02:31:41;;;;;;;4.60;3.28;;;21.00;54.00;;;;;;4932233;29;20036;-54
2022/08/30 02:34:13;;;;;;;4.80;3.15;;;21.00;53.70;;;;;;4926691;29;20054;-55
2022/08/30 02:36:40;;;;;;;6.78;3.60;;;20.90;54.00;;;;;;4931475;29;20059;-55
2022/08/30 02:39:13;;;;;;;3.85;3.38;;;20.90;54.20;;;;;;4932307;29;20067;-55
2022/08/30 02:41:42;;;;;;;4.97;3.75;;;20.90;54.30;;;;;;4929981;29;20496;-55
2022/08/30 02:44:12;;;;;;;6.05;3.38;;;20.80;54.40;;;;;;4927432;29;20075;-55
2022/08/30 02:46:38;;;;;;;3.28;2.78;;;20.80;54.50;;;;;;4931925;29;20547;-55
2022/08/30 02:49:11;;;;;;;4.05;3.35;;;20.80;54.60;;;;;;4933352;29;20044;-56
2022/08/30 02:52:00;;;;;;;5.13;3.42;;;20.70;54.70;;;;;;4926927;29;20079;-51
2022/08/30 02:54:27;;;;;;;4.50;3.10;;;20.60;55.40;;;;;;4933132;29;20091;-53
2022/08/30 02:56:55;;;;;;;8.10;3.88;;;20.60;54.90;;;;;;4932009;29;20658;-55
2022/08/30 02:59:24;;;;;;;7.22;3.67;;;20.60;54.90;;;;;;4927062;29;20054;-56
2022/08/30 03:01:50;;;;;;;5.43;3.35;;;20.50;55.00;;;;;;4926134;29;20099;-51
2022/08/30 03:04:18;;;;;;;5.30;3.45;;;20.50;55.10;;;;;;4933166;29;20051;-52
2022/08/30 03:06:52;;;;;;;4.43;3.88;;;20.50;55.20;;;;;;4931729;29;20058;-55
2022/08/30 03:09:22;;;;;;;8.57;4.68;;;20.40;55.20;;;;;;4931214;29;20389;-56
2022/08/30 03:11:51;;;;;;;6.97;3.92;;;20.30;55.50;;;;;;4929124;29;20099;-55
2022/08/30 03:14:18;;;;;;;4.97;3.70;;;20.30;55.30;;;;;;4933053;29;20079;-55
2022/08/30 03:16:45;;;;;;;4.25;3.35;;;20.20;55.40;;;;;;4925047;29;20067;-54
2022/08/30 03:19:15;;;;;;;4.07;3.38;;;20.20;55.50;;;;;;4924495;29;20074;-55
2022/08/30 03:21:45;;;;;;;4.95;3.58;;;20.20;55.70;;;;;;4927826;29;20044;-55
2022/08/30 03:24:12;;;;;;;4.40;3.60;;;20.10;55.80;;;;;;4933011;29;20131;-54
2022/08/30 03:26:39;;;;;;;6.53;3.60;;;20.10;56.10;;;;;;4932347;29;20679;-55
2022/08/30 03:29:11;;;;;;;4.20;3.55;;;20.10;56.30;;;;;;4931491;29;20059;-52
2022/08/30 03:31:44;;;;;;;4.47;3.50;;;20.10;56.50;;;;;;4930113;29;20062;-54
2022/08/30 03:34:20;;;;;;;4.50;3.70;;;20.10;56.70;;;;;;4929144;29;20044;-55
2022/08/30 03:36:50;;;;;;;7.13;4.00;;;20.10;56.80;;;;;;4935553;29;20055;-54
2022/08/30 03:39:16;;;;;;;7.10;3.58;;;20.10;57.00;;;;;;4932172;29;20131;-55
2022/08/30 03:41:44;;;;;;;4.82;4.07;;;20.10;57.10;;;;;;4935731;29;20086;-53
2022/08/30 03:44:11;;;;;;;5.85;3.88;;;20.10;57.10;;;;;;4936956;29;20040;-54
2022/08/30 03:46:44;;;;;;;6.57;3.85;;;20.00;56.90;;;;;;4935984;29;20743;-53
2022/08/30 03:49:16;;;;;;;4.63;3.40;;;20.00;57.00;;;;;;4932856;29;20408;-54
2022/08/30 03:51:43;;;;;;;4.78;3.35;;;20.10;57.10;;;;;;4934075;29;20055;-51
2022/08/30 03:54:10;;;;;;;5.30;4.00;;;20.00;57.10;;;;;;4936879;29;20058;-56
2022/08/30 03:56:37;;;;;;;5.50;3.40;;;20.00;57.90;;;;;;4935195;29;20079;-53
2022/08/30 03:59:09;;;;;;;5.72;3.30;;;20.00;57.40;;;;;;4924572;29;20040;-55
2022/08/30 04:01:40;;;;;;;3.85;3.42;;;19.90;57.90;;;;;;4934719;29;20052;-54
2022/08/30 04:04:11;;;;;;;4.68;3.63;;;20.00;58.00;;;;;;4936192;29;20040;-54
2022/08/30 04:06:44;;;;;;;4.03;3.63;;;20.00;57.80;;;;;;4932431;29;20052;-54
2022/08/30 04:09:14;;;;;;;5.97;4.57;;;20.00;58.00;;;;;;4935977;29;20046;-56
2022/08/30 04:11:41;;;;;;;4.00;3.65;;;20.00;58.10;;;;;;4935022;29;20051;-54
2022/08/30 04:14:10;;;;;;;5.47;3.63;;;20.00;58.20;;;;;;4933664;29;20559;-55
2022/08/30 04:16:37;;;;;;;6.70;3.85;;;20.10;58.20;;;;;;4932366;29;20047;-56
2022/08/30 04:19:07;;;;;;;5.85;4.32;;;20.10;58.20;;;;;;4933286;29;20453;-55
2022/08/30 04:21:36;;;;;;;6.20;3.78;;;20.10;58.40;;;;;;4931762;29;20044;-55
2022/08/30 04:24:12;;;;;;;3.75;3.38;;;20.10;58.20;;;;;;4935932;29;20709;-54
2022/08/30 04:26:44;;;;;;;8.18;4.95;;;20.10;58.20;;;;;;4930944;29;20048;-55
2022/08/30 04:29:11;;;;;;;6.40;3.60;;;20.10;58.00;;;;;;4935639;29;20043;-54
2022/08/30 04:31:40;;;;;;;5.75;3.22;;;20.10;58.10;;;;;;4934487;29;20067;-55
2022/08/30 04:34:09;;;;;;;4.93;4.10;;;20.20;58.30;;;;;;4936544;29;20048;-52
2022/08/30 04:36:36;;;;;;;7.93;3.95;;;20.20;58.30;;;;;;4930195;29;20051;-55
2022/08/30 04:39:08;;;;;;;4.32;3.78;;;20.20;58.20;;;;;;4935471;29;20043;-55
2022/08/30 04:41:35;;;;;;;;;;;20.20;58.70;;;;;;4931978;29;20047;-53
2022/08/30 04:44:02;;;;;;;3.95;3.20;;;20.30;57.80;;;;;;4933522;29;20307;-55
2022/08/30 04:46:34;;;;;;;5.38;3.40;;;20.30;57.80;;;;;;4934165;29;20118;-53
2022/08/30 04:49:10;;;;;;;5.65;3.05;;;20.30;58.00;;;;;;4935664;29;20052;-54
2022/08/30 04:51:36;;;;;;;4.55;3.67;;;20.30;58.10;;;;;;4934670;29;20039;-54
2022/08/30 04:54:04;;;;;;;5.53;3.90;;;20.30;58.20;;;;;;4931060;29;20048;-53
2022/08/30 04:56:31;;;;;;;5.35;3.45;;;20.30;58.30;;;;;;4934527;29;20102;-51
2022/08/30 04:58:59;;;;;;;3.90;3.17;;;20.30;58.20;;;;;;4929331;29;20055;-53
2022/08/30 05:01:27;;;;;;;5.38;3.55;;;20.30;58.30;;;;;;4934634;29;20047;-55
2022/08/30 05:03:57;;;;;;;5.38;4.10;;;20.30;58.50;;;;;;4930999;29;20048;-52
2022/08/30 05:06:26;;;;;;;5.07;3.72;;;20.30;58.40;;;;;;4931520;29;20044;-55
2022/08/30 05:08:54;;;;;;;4.22;3.85;;;20.30;58.40;;;;;;4933045;29;20475;-53
2022/08/30 05:11:20;;;;;;;5.70;4.20;;;20.30;58.60;;;;;;4934795;29;20074;-54
2022/08/30 05:13:48;;;;;;;4.75;3.35;;;20.30;58.60;;;;;;4931026;29;20491;-54
2022/08/30 05:16:16;;;;;;;4.63;3.97;;;20.40;58.70;;;;;;4948136;29;20044;-54
2022/08/30 05:18:45;;;;;;;4.55;3.80;;;20.40;58.90;;;;;;4920227;29;20123;-53
2022/08/30 05:21:14;;;;;;;7.18;4.20;;;20.40;58.80;;;;;;4919968;29;20111;-54
2022/08/30 05:23:43;;;;;;;6.22;3.60;;;20.40;59.00;;;;;;4929761;29;20417;-55
2022/08/30 05:26:22;;;;;;;5.18;3.28;;;20.40;58.90;;;;;;4932403;29;20047;-54
2022/08/30 05:28:51;;;;;;;5.53;4.13;;;20.40;59.80;;;;;;4934819;29;20098;-54
2022/08/30 05:31:22;;;;;;;6.15;4.45;;;20.40;58.80;;;;;;4929456;29;20040;-55
2022/08/30 05:33:50;;;;;;;5.00;3.53;;;20.50;59.10;;;;;;4931396;29;20090;-54
2022/08/30 05:36:19;;;;;;;6.18;4.28;;;20.60;58.80;;;;;;4934367;29;20095;-50
2022/08/30 05:38:46;;;;;;;5.13;3.97;;;20.60;58.60;;;;;;4932838;29;20056;-53
2022/08/30 05:41:13;;;;;;;4.13;3.47;;;20.60;58.50;;;;;;4929525;29;20719;-54
2022/08/30 05:43:40;;;;;;;6.70;4.20;;;20.60;58.50;;;;;;4933129;29;20040;-52
2022/08/30 05:46:10;;;;;;;5.20;3.50;;;20.70;58.50;;;;;;4933256;29;20107;-53
2022/08/30 05:48:37;;;;;;;4.68;3.65;;;20.70;58.50;;;;;;4931338;29;21108;-54
2022/08/30 05:51:13;;;;;;;13.73;5.65;;;20.70;58.30;;;;;;4928135;29;20048;-51
2022/08/30 05:53:40;;;;;;;5.50;4.05;;;20.80;58.50;;;;;;4929477;29;20051;-54
2022/08/30 05:56:10;;;;;;;5.20;3.80;;;20.80;58.20;;;;;;4932779;29;20094;-55
2022/08/30 05:58:38;;;;;;;4.70;3.65;;;20.90;58.50;;;;;;4932103;29;20051;-54
2022/08/30 06:01:05;;;;;;;4.65;3.97;;;20.90;58.20;;;;;;4929159;29;20135;-54
2022/08/30 06:03:33;;;;;;;5.28;3.67;;;20.90;57.90;;;;;;4933137;29;20044;-54
2022/08/30 06:06:01;;;;;;;4.22;3.83;;;21.00;57.80;;;;;;4923281;29;20044;-54
2022/08/30 06:08:28;;;;;;;4.15;3.72;;;21.00;57.70;;;;;;4929881;29;20054;-54
2022/08/30 06:10:55;;;;;;;7.68;5.22;;;21.10;57.70;;;;;;4922628;29;20051;-54
2022/08/30 06:13:22;;;;;;;5.18;4.43;;;21.20;57.70;;;;;;4917433;29;20058;-54
2022/08/30 06:15:49;;;;;;;4.90;3.92;;;21.20;57.60;;;;;;4932443;29;20107;-54
2022/08/30 06:18:16;;;;;;;6.35;4.53;;;21.30;57.50;;;;;;4915732;29;20051;-54
2022/08/30 06:20:50;;;;;;;;;;;21.30;57.40;;;;;;4934258;29;20043;-55
2022/08/30 06:23:16;;;;;;;6.28;3.67;;;21.50;57.10;;;;;;4932125;29;19926;-56
2022/08/30 06:25:44;;;;;;;4.00;3.53;;;21.50;56.90;;;;;;4928838;29;20556;-56
2022/08/30 06:28:11;;;;;;;6.57;4.00;;;21.50;57.00;;;;;;4927898;29;20048;-54
2022/08/30 06:30:40;;;;;;;6.38;3.67;;;21.60;56.70;;;;;;4920469;29;20096;-55
2022/08/30 06:33:07;;;;;;;4.82;3.42;;;21.60;56.60;;;;;;4927700;29;20560;-53
2022/08/30 06:35:34;;;;;;;6.50;4.03;;;21.60;56.60;;;;;;4924695;29;20115;-53
2022/08/30 06:38:21;;;;;;;5.65;4.13;;;21.70;56.60;;;;;;4923862;29;20119;-55
2022/08/30 06:40:49;;;;;;;6.18;3.83;;;21.70;56.30;;;;;;4926641;29;20047;-54
2022/08/30 06:43:16;;;;;;;6.97;4.45;;;21.70;56.20;;;;;;4912868;29;20048;-52
2022/08/30 06:45:43;;;;;;;5.47;3.95;;;21.70;56.20;;;;;;4925486;29;20051;-54
2022/08/30 06:48:09;;;;;;;5.53;4.15;;;21.80;56.30;;;;;;4925724;29;20051;-54
2022/08/30 06:50:36;;;;;;;4.40;4.00;;;21.80;56.30;;;;;;4936942;29;20055;-53
2022/08/30 06:53:04;;;;;;;5.43;3.80;;;21.80;56.30;;;;;;4930230;29;20139;-55
2022/08/30 06:55:34;;;;;;;7.90;4.38;;;21.90;56.30;;;;;;4926801;29;20119;-52
2022/08/30 06:58:02;;;;;;;5.75;4.18;;;21.90;56.20;;;;;;4931519;29;20095;-54
2022/08/30 07:00:29;;;;;;;4.88;3.97;;;22.00;56.10;;;;;;4931510;29;20044;-53
2022/08/30 07:02:57;;;;;;;6.13;4.50;;;22.00;56.00;;;;;;4931541;29;20067;-55
2022/08/30 07:05:24;;;;;;;6.72;4.47;;;22.00;55.80;;;;;;4928133;29;20063;-55
2022/08/30 07:07:52;;;;;;;6.22;4.25;;;22.10;55.70;;;;;;4931280;29;20043;-55
2022/08/30 07:10:20;;;;;;;5.90;4.30;;;22.10;55.60;;;;;;4924959;29;20055;-55
2022/08/30 07:12:49;;;;;;;7.97;4.10;;;22.20;55.60;;;;;;4933313;29;20047;-55
2022/08/30 07:15:19;;;;;;;7.20;4.20;;;22.20;55.50;;;;;;4926570;29;20059;-54
2022/08/30 07:20:31;;;;;;;6.35;4.72;;;22.30;55.40;;;;;;4935052;29;20047;-55
2022/08/30 07:23:07;;;;;;;5.05;4.10;;;22.30;55.40;;;;;;4934681;28;20048;-55
2022/08/30 07:25:38;;;;;;;7.03;4.80;;;22.30;55.20;;;;;;4921463;29;20044;-50
2022/08/30 07:28:09;;;;;;;5.90;4.60;;;22.40;55.30;;;;;;4924375;29;20565;-55
2022/08/30 07:30:36;;;;;;;5.05;4.18;;;22.40;55.00;;;;;;4955309;23;20086;-52
2022/08/30 07:33:03;;;;;;;6.97;4.72;;;22.40;55.00;;;;;;4953870;28;20071;-58
2022/08/30 07:35:30;;;;;;;4.97;4.05;;;22.50;55.10;;;;;;4964344;28;20102;-56
2022/08/30 07:37:59;;;;;;;6.03;4.35;;;22.50;55.10;;;;;;4973944;28;20042;-58
2022/08/30 07:40:26;;;;;;;5.20;4.10;;;22.50;55.10;;;;;;4951955;28;20857;-55
2022/08/30 07:42:53;;;;;;;5.50;4.18;;;22.50;55.10;;;;;;4948440;28;20126;-55
2022/08/30 07:45:20;;;;;;;6.70;4.93;;;22.60;55.10;;;;;;4951864;29;20098;-56
2022/08/30 07:47:46;;;;;;;5.97;4.65;;;22.60;54.90;;;;;;4945938;28;20382;-55
2022/08/30 07:50:13;;;;;;;6.75;5.13;;;22.70;55.00;;;;;;4939597;29;20401;-56
2022/08/30 07:52:40;;;;;;;7.10;4.72;;;22.70;55.00;;;;;;4949638;28;20047;-57
2022/08/30 07:55:07;;;;;;;7.45;4.45;;;22.80;54.80;;;;;;4952128;29;20075;-55
2022/08/30 07:57:34;;;;;;;5.40;4.63;;;22.90;54.70;;;;;;4945497;28;20047;-55
2022/08/30 08:00:01;;;;;;;8.20;4.82;;;22.90;54.70;;;;;;4953569;28;20047;-57
2022/08/30 08:02:39;;;;;;;4.65;4.05;;;23.00;54.50;;;;;;4944650;28;20118;-54
2022/08/30 08:05:07;;;;;;;6.07;4.65;;;23.10;54.30;;;;;;4951499;29;20154;-54
2022/08/30 08:07:35;;;;;;;6.25;4.53;;;23.20;54.40;;;;;;4947868;29;20058;-57
2022/08/30 08:10:03;;;;;;;5.47;3.88;;;23.20;54.00;;;;;;4949673;28;20083;-59
2022/08/30 08:12:33;;;;;;;7.53;4.20;;;23.30;53.90;;;;;;4950091;28;20042;-59
2022/08/30 08:15:00;;;;;;;5.40;3.67;;;23.40;53.90;;;;;;4951049;28;20051;-57
2022/08/30 08:17:33;;;;;;;8.55;4.15;;;23.40;53.50;;;;;;4936687;29;20047;-58
2022/08/30 08:20:00;;;;;;;7.20;4.40;;;23.50;53.20;;;;;;4938567;29;20188;-57
2022/08/30 08:22:27;;;;;;;5.95;3.97;;;23.60;53.20;;;;;;4950596;28;20043;-57
2022/08/30 08:24:54;;;;;;;7.32;4.00;;;23.70;53.00;;;;;;4948762;28;20492;-57
2022/08/30 08:27:20;;;;;;;4.78;4.28;;;23.70;53.10;;;;;;4956469;28;20504;-57
2022/08/30 08:29:47;;;;;;;6.30;3.50;;;23.80;52.90;;;;;;4953276;28;20385;-56
2022/08/30 08:32:14;;;;;;;7.03;3.35;;;23.90;52.70;;;;;;4953971;28;20055;-56
2022/08/30 08:34:40;;;;;;;7.38;3.33;;;24.00;52.60;;;;;;4951625;29;20055;-58
2022/08/30 08:37:07;;;;;;;7.50;3.70;;;24.00;52.40;;;;;;4953468;28;20525;-59
2022/08/30 08:39:34;;;;;;;8.85;3.75;;;24.10;52.20;;;;;;4954569;28;20102;-57
2022/08/30 08:42:21;;;;;;;4.30;3.20;;;24.20;52.00;;;;;;4955347;28;20071;-56
2022/08/30 08:44:49;;;;;;;3.92;2.78;;;24.30;51.70;;;;;;4952503;29;20054;-57
2022/08/30 08:48:14;;;;;;;4.22;2.67;;;24.40;51.70;;;;;;4955906;28;20050;-58
2022/08/30 08:53:33;;;;;;;4.47;3.00;;;24.70;51.20;;;;;;4915976;29;20040;-56
2022/08/30 08:53:33;;;;;;;2.85;2.45;;;24.50;51.20;;;;;;4914581;29;20594;-57
2022/08/30 08:56:18;;;;;;;5.97;3.47;;;24.80;51.10;;;;;;4932275;29;20071;-58
2022/08/30 08:58:49;;;;;;;6.60;3.38;;;24.90;50.90;;;;;;4946031;29;20116;-57
2022/08/30 09:01:18;;;;;;;10.57;4.10;;;24.90;50.60;;;;;;4952735;28;20497;-55
2022/08/30 09:03:46;;;;;;;5.10;3.55;;;25.00;50.50;;;;;;4951853;29;20071;-56
2022/08/30 09:06:50;;;;;;;5.38;3.97;;;25.10;50.40;;;;;;4955770;28;20114;-56
2022/08/30 09:09:22;;;;;;;7.82;4.15;;;25.10;49.70;;;;;;4953077;29;20031;-53
2022/08/30 09:11:49;;;;;;;7.03;3.45;;;25.20;49.50;;;;;;4947630;28;20485;-59
2022/08/30 09:14:23;;;;;;;4.65;3.03;;;25.30;49.80;;;;;;4953134;29;20562;-59
2022/08/30 09:17:08;;;;;;;7.10;3.63;;;25.30;49.60;;;;;;4929674;29;20063;-58
2022/08/30 09:19:38;;;;;;;5.45;3.90;;;25.30;49.40;;;;;;4942656;29;20058;-56
2022/08/30 09:22:25;;;;;;;4.80;3.90;;;25.30;49.60;;;;;;4942840;29;20066;-55
2022/08/30 09:24:59;;;;;;;5.68;4.18;;;25.30;48.90;;;;;;4949740;28;20043;-58
2022/08/30 09:27:29;;;;;;;6.65;4.30;;;25.40;48.80;;;;;;4940819;29;20524;-58
2022/08/30 09:30:06;;;;;;;5.40;3.95;;;25.40;49.10;;;;;;4948066;29;20553;-57
2022/08/30 09:32:53;;;;;;;5.18;3.72;;;25.40;48.80;;;;;;4946079;29;20054;-56
2022/08/30 09:35:24;;;;;;;4.22;3.03;;;25.40;48.70;;;;;;4950566;29;20393;-56
2022/08/30 09:37:53;;;;;;;5.60;3.38;;;25.40;48.90;;;;;;4951739;29;20047;-58
2022/08/30 09:40:43;;;;;;;6.35;3.97;;;25.40;48.80;;;;;;4943274;28;20068;-58
2022/08/30 09:43:16;;;;;;;7.22;3.63;;;25.40;48.40;;;;;;4936732;29;20047;-58
2022/08/30 09:46:03;;;;;;;3.90;3.15;;;25.50;48.50;;;;;;4936932;29;20039;-57
2022/08/30 09:48:44;;;;;;;6.45;3.42;;;25.50;48.20;;;;;;4940046;29;20054;-57
2022/08/30 09:51:10;;;;;;;4.57;3.38;;;25.50;48.00;;;;;;4937199;29;20048;-57
2022/08/30 09:54:15;;;;;;;5.85;3.53;;;25.50;48.30;;;;;;4945510;29;20035;-59
2022/08/30 09:57:04;;;;;;;4.72;2.83;;;25.50;48.00;;;;;;4953948;29;20035;-57
2022/08/30 09:59:44;;;;;;;5.60;3.00;;;25.60;48.10;;;;;;4945896;29;20036;-57
2022/08/30 10:02:28;;;;;;;5.65;3.17;;;25.60;48.00;;;;;;4935675;29;20057;-59
2022/08/30 10:05:14;;;;;;;5.50;3.40;;;25.60;47.40;;;;;;4948439;28;20043;-59
2022/08/30 10:07:53;;;;;;;3.97;2.90;;;25.70;47.50;;;;;;4944094;29;20150;-59
2022/08/30 10:10:42;;;;;;;5.00;3.00;;;25.70;47.20;;;;;;4935697;29;20453;-58
2022/08/30 10:13:46;;;;;;;5.68;2.78;;;25.80;47.10;;;;;;4940849;29;20054;-57
2022/08/30 10:16:35;;;;;;;3.85;2.65;;;25.80;47.10;;;;;;4948885;29;20721;-56
2022/08/30 10:19:24;;;;;;;3.30;2.83;;;25.90;47.20;;;;;;4935223;29;20111;-57
2022/08/30 10:21:57;;;;;;;5.18;2.58;;;26.00;46.80;;;;;;4940279;29;20054;-58
2022/08/30 10:24:29;;;;;;;3.08;2.50;;;26.10;46.60;;;;;;4941278;29;20646;-56
2022/08/30 10:27:08;;;;;;;5.72;2.85;;;26.20;46.60;;;;;;4953017;28;20586;-57
2022/08/30 10:29:47;;;;;;;5.20;2.70;;;26.20;46.30;;;;;;4943865;28;20077;-57
2022/08/30 10:32:25;;;;;;;2.70;2.42;;;26.30;46.10;;;;;;4946338;29;20090;-56
2022/08/30 10:34:56;;;;;;;3.47;2.28;;;26.40;46.00;;;;;;4952788;28;20534;-58
2022/08/30 10:37:30;;;;;;;2.95;2.35;;;26.50;45.50;;;;;;4935427;29;20087;-57
2022/08/30 10:43:04;;;;;;;6.00;2.70;;;26.60;45.10;;;;;;4949317;29;20078;-56
2022/08/30 10:45:34;;;;;;;7.90;2.53;;;26.70;45.10;;;;;;4933475;29;20520;-56
2022/08/30 10:48:30;;;;;;;5.43;2.05;;;26.80;44.90;;;;;;4933472;29;20080;-55
2022/08/30 10:51:05;;;;;;;3.72;2.40;;;26.90;44.80;;;;;;4933102;28;20142;-58
2022/08/30 10:53:57;;;;;;;4.15;2.25;;;26.90;44.30;;;;;;4944930;29;20051;-57
2022/08/30 10:56:28;;;;;;;3.15;2.20;;;27.00;44.10;;;;;;4941285;29;20527;-57
2022/08/30 10:58:57;;;;;;;3.88;2.58;;;27.10;44.20;;;;;;4939134;28;20102;-58
2022/08/30 11:01:55;;;;;;;5.57;2.42;;;27.10;44.40;;;;;;4942078;28;20500;-57
2022/08/30 11:04:47;;;;;;;3.47;2.17;;;27.20;43.90;;;;;;4939696;29;20397;-58
2022/08/30 11:07:37;;;;;;;2.95;2.13;;;27.30;43.30;;;;;;4934658;29;20044;-57
2022/08/30 11:10:10;;;;;;;4.05;2.20;;;27.50;43.40;;;;;;4937965;29;20064;-57
2022/08/30 11:12:43;;;;;;;3.58;2.40;;;27.60;43.30;;;;;;4944469;29;20055;-59
2022/08/30 11:15:22;;;;;;;3.70;2.15;;;27.70;42.80;;;;;;4943784;29;20493;-58
2022/08/30 11:18:10;;;;;;;3.17;2.00;;;27.80;42.10;;;;;;4945661;29;20043;-58
2022/08/30 11:20:43;;;;;;;2.30;1.83;;;27.90;42.40;;;;;;4941463;29;20055;-56
2022/08/30 11:23:30;;;;;;;3.63;2.15;;;28.10;42.40;;;;;;4941379;28;20051;-56
2022/08/30 11:26:10;;;;;;;3.03;2.15;;;28.20;41.90;;;;;;4933620;29;20047;-56
2022/08/30 11:28:46;;;;;;;2.92;2.10;;;28.30;41.20;;;;;;4944633;29;20683;-57
2022/08/30 11:31:21;;;;;;;2.85;1.80;;;28.40;41.10;;;;;;4949433;28;20040;-58
2022/08/30 11:33:54;;;;;;;1.70;1.50;;;28.50;40.10;;;;;;4949386;29;20471;-55
2022/08/30 11:36:31;;;;;;;3.45;2.00;;;28.50;39.90;;;;;;4933689;29;20095;-56
2022/08/30 11:39:09;;;;;;;5.35;2.40;;;28.60;40.40;;;;;;4935163;29;20047;-59
2022/08/30 11:41:36;;;;;;;3.60;1.65;;;28.60;40.30;;;;;;4948805;29;20553;-57
2022/08/30 11:44:26;;;;;;;;;;;28.60;40.40;;;;;;4935807;28;20058;-59
2022/08/30 11:46:57;;;;;;;2.03;1.73;;;28.70;41.50;;;;;;4945768;29;19922;-57
2022/08/30 11:49:45;;;;;;;3.80;2.05;;;28.80;40.70;;;;;;4948143;29;20090;-58
2022/08/30 11:52:28;;;;;;;3.05;2.50;;;28.80;40.10;;;;;;4947640;29;20698;-58
2022/08/30 11:55:21;;;;;;;5.53;1.77;;;28.80;39.90;;;;;;4956848;28;20047;-57
2022/08/30 11:57:47;;;;;;;;;;;28.90;39.60;;;;;;4942818;28;20052;-57
2022/08/30 12:00:36;;;;;;;3.70;1.90;;;29.00;41.00;;;;;;4940023;28;19922;-57
2022/08/30 12:03:06;;;;;;;4.80;2.00;;;29.00;39.90;;;;;;4958111;28;20055;-57
2022/08/30 12:05:39;;;;;;;3.25;1.83;;;29.10;39.80;;;;;;4950342;28;20074;-56
2022/08/30 12:08:20;;;;;;;2.72;1.90;;;29.10;39.50;;;;;;4953173;29;20045;-58
2022/08/30 12:10:53;;;;;;;3.30;2.08;;;29.20;39.60;;;;;;4951502;29;20051;-56
2022/08/30 12:13:35;;;;;;;3.53;1.88;;;29.20;39.50;;;;;;4946644;28;20039;-57
2022/08/30 12:16:18;;;;;;;5.85;1.90;;;29.30;39.70;;;;;;4942936;29;20047;-57
2022/08/30 12:18:49;;;;;;;2.72;1.70;;;29.30;39.10;;;;;;4938244;29;20052;-59
2022/08/30 12:21:16;;;;;;;3.25;2.00;;;29.40;39.20;;;;;;4937952;29;20099;-59
2022/08/30 12:24:21;;;;;;;2.60;2.40;;;29.50;38.90;;;;;;4944026;29;20717;-57
2022/08/30 12:26:51;;;;;;;2.60;1.90;;;29.60;38.50;;;;;;4950108;28;20420;-59
2022/08/30 12:29:21;;;;;;;6.40;2.35;;;29.80;38.50;;;;;;4951701;28;20559;-58
2022/08/30 12:31:58;;;;;;;3.53;2.30;;;29.90;38.50;;;;;;4938937;29;20058;-58
2022/08/30 12:34:33;;;;;;;4.07;1.95;;;30.00;37.70;;;;;;4950995;29;20053;-58
2022/08/30 12:37:03;;;;;;;3.85;2.00;;;30.10;38.00;;;;;;4946611;29;20043;-57
2022/08/30 12:39:42;;;;;;;4.65;1.90;;;30.20;37.80;;;;;;4956866;28;20047;-58
2022/08/30 12:42:22;;;;;;;2.80;1.75;;;30.30;37.80;;;;;;4951298;28;20109;-57
2022/08/30 12:44:56;;;;;;;2.30;2.13;;;30.40;37.00;;;;;;4951172;29;20043;-58
2022/08/30 12:47:35;;;;;;;3.45;2.15;;;30.40;36.70;;;;;;4944925;29;20055;-57
2022/08/30 12:50:05;;;;;;;5.10;2.22;;;30.50;36.80;;;;;;4936818;29;20048;-57
2022/08/30 12:52:43;;;;;;;3.45;1.90;;;30.50;37.30;;;;;;4945333;29;20075;-58
2022/08/30 12:55:18;;;;;;;2.83;1.63;;;30.60;36.80;;;;;;4953594;28;20078;-59
2022/08/30 12:58:08;;;;;;;6.60;2.10;;;30.70;36.70;;;;;;4951698;29;20047;-58
2022/08/30 13:00:44;;;;;;;4.15;2.13;;;30.80;36.50;;;;;;4954793;28;20055;-59
2022/08/30 13:03:33;;;;;;;4.18;1.95;;;31.00;36.10;;;;;;4950242;28;20042;-58
2022/08/30 13:06:01;;;;;;;2.00;1.80;;;31.10;36.20;;;;;;4941242;28;20034;-58
2022/08/30 13:08:37;;;;;;;3.17;1.50;;;31.30;35.90;;;;;;4955925;28;20051;-57
2022/08/30 13:11:08;;;;;;;3.70;1.63;;;31.40;35.70;;;;;;4950805;28;20055;-58
2022/08/30 13:13:44;;;;;;;1.52;1.42;;;31.40;35.30;;;;;;4956911;28;20103;-59
2022/08/30 13:16:19;;;;;;;4.88;1.85;;;31.60;35.40;;;;;;4943422;29;20118;-57
2022/08/30 13:19:21;;;;;;;3.67;1.77;;;31.70;35.70;;;;;;4936405;29;20067;-58
2022/08/30 13:21:54;;;;;;;3.10;1.52;;;31.80;35.40;;;;;;4946100;29;20063;-58